Time;durP1;ratioP1;P1;durP2;ratioP2;P2;SDS_P1;SDS_P2;PMS_P1;PMS_P2;Temp;Humidity;BMP_temperature;BMP_pressure;BME280_temperature;BME280_humidity;BME280_pressure;Samples;Min_cycle;Max_cycle;Signal;HPM_P1;HPM_P2
2022/11/28 00:02:19;;;;;;;4.63;3.05;;;;;;;;;;5220240;28;20021;-73
2022/11/28 00:04:50;;;;;;;4.40;3.05;;;;;;;;;;5220254;28;20018;-73
2022/11/28 00:07:22;;;;;;;4.68;2.88;;;;;;;;;;5220736;28;20048;-74
2022/11/28 00:09:53;;;;;;;4.60;2.86;;;;;;;;;;5219816;28;20021;-73
2022/11/28 00:12:25;;;;;;;3.95;2.60;;;;;;;;;;5220396;28;20014;-73
2022/11/28 00:14:56;;;;;;;3.85;2.63;;;;;;;;;;5220408;28;20480;-73
2022/11/28 00:17:27;;;;;;;4.63;2.80;;;;;;;;;;5219526;28;20018;-72
2022/11/28 00:19:58;;;;;;;5.04;3.06;;;;;;;;;;5220345;28;20041;-72
2022/11/28 00:22:29;;;;;;;5.68;2.92;;;;;;;;;;5220367;28;20022;-73
2022/11/28 00:25:01;;;;;;;3.78;2.20;;;;;;;;;;5219383;28;20079;-72
2022/11/28 00:27:33;;;;;;;4.20;2.42;;;;;;;;;;5220157;28;20527;-72
2022/11/28 00:30:04;;;;;;;3.38;2.20;;;;;;;;;;5220168;28;20084;-73
2022/11/28 00:32:36;;;;;;;5.78;2.13;;;;;;;;;;5219039;28;20460;-73
2022/11/28 00:35:07;;;;;;;3.67;1.80;;;;;;;;;;5220033;28;20030;-73
2022/11/28 00:37:38;;;;;;;4.30;1.58;;;;;;;;;;5219122;28;20068;-72
2022/11/28 00:40:09;;;;;;;2.72;1.30;;;;;;;;;;5220142;28;20069;-72
2022/11/28 00:42:40;;;;;;;1.85;1.40;;;;;;;;;;5219819;28;20084;-73
2022/11/28 00:45:11;;;;;;;2.86;1.74;;;;;;;;;;5219601;28;20076;-73
2022/11/28 00:47:43;;;;;;;2.55;1.60;;;;;;;;;;5219662;28;20022;-73
2022/11/28 00:50:14;;;;;;;3.53;1.40;;;;;;;;;;5220129;28;20026;-72
2022/11/28 00:52:45;;;;;;;8.35;2.03;;;;;;;;;;5218574;28;20020;-72
2022/11/28 00:55:16;;;;;;;3.60;1.16;;;;;;;;;;5220247;28;20037;-73
2022/11/28 00:57:47;;;;;;;2.40;1.33;;;;;;;;;;5219220;28;20017;-73
2022/11/28 01:00:19;;;;;;;4.13;1.60;;;;;;;;;;5219242;28;20480;-72
2022/11/28 01:02:51;;;;;;;2.60;1.60;;;;;;;;;;5219368;28;20049;-72
2022/11/28 01:05:22;;;;;;;3.20;1.85;;;;;;;;;;5219576;28;20036;-73
2022/11/28 01:07:53;;;;;;;2.33;1.50;;;;;;;;;;5218952;28;20025;-73
2022/11/28 01:10:25;;;;;;;3.10;1.60;;;;;;;;;;5219568;28;20021;-73
2022/11/28 01:12:57;;;;;;;3.38;1.30;;;;;;;;;;5218839;28;20021;-73
2022/11/28 01:15:28;;;;;;;3.84;1.82;;;;;;;;;;5219558;28;20030;-73
2022/11/28 01:18:00;;;;;;;3.25;1.58;;;;;;;;;;5219461;28;20018;-73
2022/11/28 01:20:31;;;;;;;3.55;1.90;;;;;;;;;;5218861;28;20378;-73
2022/11/28 01:23:02;;;;;;;4.93;1.70;;;;;;;;;;5219584;28;20027;-73
2022/11/28 01:25:34;;;;;;;3.42;1.77;;;;;;;;;;5219417;28;20088;-73
2022/11/28 01:28:05;;;;;;;3.83;2.00;;;;;;;;;;5218454;28;20022;-73
2022/11/28 01:30:36;;;;;;;2.92;1.50;;;;;;;;;;5219510;28;20060;-73
2022/11/28 01:33:07;;;;;;;2.84;1.82;;;;;;;;;;5219368;28;20414;-73
2022/11/28 01:35:38;;;;;;;3.40;1.45;;;;;;;;;;5218376;28;20033;-73
2022/11/28 01:38:09;;;;;;;2.54;1.10;;;;;;;;;;5219496;28;20064;-73
2022/11/28 01:40:44;;;;;;;2.80;1.48;;;;;;;;;;5218020;28;20037;-74
2022/11/28 01:43:16;;;;;;;4.05;1.50;;;;;;;;;;5219724;28;20022;-73
2022/11/28 01:45:47;;;;;;;3.05;1.38;;;;;;;;;;5219090;28;20034;-73
2022/11/28 01:48:38;;;;;;;2.22;1.00;;;;;;;;;;5223005;28;20060;-73
2022/11/28 01:51:09;;;;;;;2.53;1.10;;;;;;;;;;5223460;28;20485;-73
2022/11/28 01:53:43;;;;;;;2.95;1.30;;;;;;;;;;5223029;28;20022;-72
2022/11/28 01:56:23;;;;;;;5.20;1.40;;;;;;;;;;5222623;28;20057;-72
2022/11/28 01:58:58;;;;;;;2.55;1.23;;;;;;;;;;5222968;28;20059;-73
2022/11/28 02:01:29;;;;;;;5.28;1.27;;;;;;;;;;5222949;28;20029;-72
2022/11/28 02:04:02;;;;;;;3.08;1.10;;;;;;;;;;5222059;28;20048;-72
2022/11/28 02:06:34;;;;;;;3.53;1.27;;;;;;;;;;5222811;28;20026;-72
2022/11/28 02:09:08;;;;;;;2.58;1.30;;;;;;;;;;5222044;28;20160;-71
2022/11/28 02:11:58;;;;;;;4.05;1.35;;;;;;;;;;5222478;28;20021;-72
2022/11/28 02:14:29;;;;;;;2.00;1.02;;;;;;;;;;5222983;28;20393;-72
2022/11/28 02:17:00;;;;;;;1.80;1.05;;;;;;;;;;5222123;28;20029;-71
2022/11/28 02:19:49;;;;;;;2.70;1.20;;;;;;;;;;5222777;28;20288;-71
2022/11/28 02:22:39;;;;;;;3.20;1.30;;;;;;;;;;5222559;28;20288;-72
2022/11/28 02:25:25;;;;;;;1.80;0.98;;;;;;;;;;5222160;28;20072;-72
2022/11/28 02:28:15;;;;;;;1.88;1.20;;;;;;;;;;5222483;28;20422;-72
2022/11/28 02:31:04;;;;;;;2.63;1.13;;;;;;;;;;5221264;28;20025;-72
2022/11/28 02:33:43;;;;;;;3.20;1.73;;;;;;;;;;5222316;28;20124;-72
2022/11/28 02:36:18;;;;;;;3.17;1.27;;;;;;;;;;5222830;28;20022;-72
2022/11/28 02:38:56;;;;;;;5.45;1.10;;;;;;;;;;5221081;28;20014;-72
2022/11/28 02:41:39;;;;;;;3.00;1.10;;;;;;;;;;5222465;28;20473;-72
2022/11/28 02:44:15;;;;;;;4.18;1.20;;;;;;;;;;5221953;28;20261;-72
2022/11/28 02:46:52;;;;;;;2.38;0.90;;;;;;;;;;5221887;28;20018;-72
2022/11/28 02:49:33;;;;;;;2.60;0.82;;;;;;;;;;5222069;28;20029;-72
2022/11/28 02:52:07;;;;;;;1.90;1.00;;;;;;;;;;5221294;28;20018;-72
2022/11/28 02:54:39;;;;;;;3.38;1.00;;;;;;;;;;5221819;28;20446;-72
2022/11/28 02:57:10;;;;;;;3.70;1.05;;;;;;;;;;5221856;28;20096;-72
2022/11/28 02:59:41;;;;;;;2.20;1.00;;;;;;;;;;5219734;28;20084;-72
2022/11/28 03:02:21;;;;;;;1.52;0.82;;;;;;;;;;5222341;28;20373;-73
2022/11/28 03:04:56;;;;;;;2.65;0.98;;;;;;;;;;5222033;28;20269;-73
2022/11/28 03:07:30;;;;;;;2.67;0.95;;;;;;;;;;5220725;28;20022;-72
2022/11/28 03:10:21;;;;;;;2.63;1.05;;;;;;;;;;5221419;28;20029;-73
2022/11/28 03:12:52;;;;;;;2.30;0.85;;;;;;;;;;5220914;28;20049;-73
2022/11/28 03:15:30;;;;;;;2.30;0.70;;;;;;;;;;5221292;28;20077;-73
2022/11/28 03:18:16;;;;;;;2.22;1.00;;;;;;;;;;5221417;28;20271;-72
2022/11/28 03:20:53;;;;;;;2.33;0.80;;;;;;;;;;5220085;28;20362;-73
2022/11/28 03:23:30;;;;;;;2.30;0.90;;;;;;;;;;5221474;28;20022;-73
2022/11/28 03:26:07;;;;;;;1.67;0.77;;;;;;;;;;5221637;28;20031;-73
2022/11/28 03:28:51;;;;;;;1.95;0.85;;;;;;;;;;5220766;28;20072;-72
2022/11/28 03:31:46;;;;;;;3.28;1.08;;;;;;;;;;5221227;28;20036;-72
2022/11/28 03:34:19;;;;;;;1.88;0.90;;;;;;;;;;5207544;28;20058;-72
2022/11/28 03:36:56;;;;;;;2.00;0.90;;;;;;;;;;5220826;28;20025;-72
2022/11/28 03:39:30;;;;;;;2.78;0.90;;;;;;;;;;5220924;28;20030;-72
2022/11/28 03:42:06;;;;;;;2.22;0.95;;;;;;;;;;5219987;28;20091;-72
2022/11/28 03:45:00;;;;;;;2.30;0.95;;;;;;;;;;5221173;28;20028;-71
2022/11/28 03:47:33;;;;;;;1.92;0.80;;;;;;;;;;5220108;28;20014;-72
2022/11/28 03:50:06;;;;;;;2.75;0.80;;;;;;;;;;5220896;28;20029;-72
2022/11/28 03:52:40;;;;;;;2.63;1.00;;;;;;;;;;5221085;28;20014;-72
2022/11/28 03:55:22;;;;;;;2.33;1.08;;;;;;;;;;5220400;28;20384;-72
2022/11/28 03:57:58;;;;;;;2.58;0.80;;;;;;;;;;5220647;28;20049;-72
2022/11/28 04:00:30;;;;;;;1.50;0.80;;;;;;;;;;5220811;28;20495;-72
2022/11/28 04:03:16;;;;;;;2.40;1.00;;;;;;;;;;5220075;28;20022;-72
2022/11/28 04:05:51;;;;;;;4.97;0.95;;;;;;;;;;5220333;28;20109;-72
2022/11/28 04:08:28;;;;;;;2.00;0.90;;;;;;;;;;5219650;28;20025;-73
2022/11/28 04:11:13;;;;;;;2.38;0.82;;;;;;;;;;5220340;28;20036;-72
2022/11/28 04:13:51;;;;;;;1.40;0.73;;;;;;;;;;5220147;28;20049;-72
2022/11/28 04:16:32;;;;;;;1.95;1.00;;;;;;;;;;5219811;28;20057;-73
2022/11/28 04:19:07;;;;;;;2.53;1.10;;;;;;;;;;5220294;28;20029;-73
2022/11/28 04:21:49;;;;;;;1.80;0.80;;;;;;;;;;5220260;28;20022;-73
2022/11/28 04:24:22;;;;;;;2.38;1.00;;;;;;;;;;5219662;28;20018;-74
2022/11/28 04:26:56;;;;;;;2.03;0.80;;;;;;;;;;5220184;28;20079;-73
2022/11/28 04:29:30;;;;;;;1.98;0.80;;;;;;;;;;5219284;28;20026;-73
2022/11/28 04:32:02;;;;;;;1.45;0.75;;;;;;;;;;5220262;28;20145;-73
2022/11/28 04:34:35;;;;;;;1.60;0.90;;;;;;;;;;5219780;28;20052;-73
2022/11/28 04:37:06;;;;;;;2.33;1.00;;;;;;;;;;5219278;28;20030;-72
2022/11/28 04:39:39;;;;;;;2.08;1.10;;;;;;;;;;5219807;28;20376;-73
2022/11/28 04:42:13;;;;;;;1.95;0.90;;;;;;;;;;5220490;28;20042;-73
2022/11/28 04:44:57;;;;;;;1.98;0.90;;;;;;;;;;5218692;28;20145;-73
2022/11/28 04:47:28;;;;;;;1.55;0.90;;;;;;;;;;5220035;28;20073;-72
2022/11/28 04:49:59;;;;;;;2.10;0.95;;;;;;;;;;5219818;28;20115;-73
2022/11/28 04:52:37;;;;;;;2.30;1.13;;;;;;;;;;5219021;28;20036;-73
2022/11/28 04:55:16;;;;;;;1.85;1.10;;;;;;;;;;5219899;28;20036;-72
2022/11/28 04:57:50;;;;;;;1.58;0.82;;;;;;;;;;5218663;28;20026;-72
2022/11/28 05:00:21;;;;;;;2.25;1.00;;;;;;;;;;5219746;28;20045;-73
2022/11/28 05:02:53;;;;;;;2.22;1.23;;;;;;;;;;5219589;28;20029;-72
2022/11/28 05:05:25;;;;;;;2.17;1.00;;;;;;;;;;5218973;28;20112;-73
2022/11/28 05:07:57;;;;;;;1.90;1.20;;;;;;;;;;5219632;28;20014;-72
2022/11/28 05:10:29;;;;;;;2.05;0.98;;;;;;;;;;5219539;28;20037;-72
2022/11/28 05:13:00;;;;;;;2.63;1.20;;;;;;;;;;5218653;28;20041;-72
2022/11/28 05:15:32;;;;;;;2.05;1.20;;;;;;;;;;5219713;28;20372;-72
2022/11/28 05:18:03;;;;;;;2.10;1.17;;;;;;;;;;5219620;28;20010;-72
2022/11/28 05:20:35;;;;;;;2.15;1.35;;;;;;;;;;5218730;28;20072;-72
2022/11/28 05:23:06;;;;;;;1.90;1.00;;;;;;;;;;5223404;28;20056;-73
2022/11/28 05:25:38;;;;;;;2.13;1.52;;;;;;;;;;5223661;28;20049;-72
2022/11/28 05:28:09;;;;;;;1.80;1.08;;;;;;;;;;5223528;28;20021;-73
2022/11/28 05:30:41;;;;;;;2.15;1.20;;;;;;;;;;5223626;28;20029;-72
2022/11/28 05:33:12;;;;;;;2.18;1.48;;;;;;;;;;5223325;28;20057;-73
2022/11/28 05:35:43;;;;;;;1.67;1.10;;;;;;;;;;5223274;28;20036;-72
2022/11/28 05:38:14;;;;;;;1.55;1.02;;;;;;;;;;5223605;28;20760;-73
2022/11/28 05:40:45;;;;;;;3.22;1.55;;;;;;;;;;5222254;28;20288;-73
2022/11/28 05:43:16;;;;;;;1.70;1.40;;;;;;;;;;5223687;28;20268;-73
2022/11/28 05:45:48;;;;;;;1.98;1.50;;;;;;;;;;5223110;28;20041;-73
2022/11/28 05:48:19;;;;;;;2.42;1.52;;;;;;;;;;5222613;28;20018;-73
2022/11/28 05:50:50;;;;;;;2.22;1.40;;;;;;;;;;5222824;28;20477;-73
2022/11/28 05:53:21;;;;;;;2.35;1.60;;;;;;;;;;5223304;28;20026;-73
2022/11/28 05:55:52;;;;;;;2.42;1.70;;;;;;;;;;5222210;28;20048;-73
2022/11/28 05:58:24;;;;;;;2.28;1.46;;;;;;;;;;5222965;28;20472;-72
2022/11/28 06:00:55;;;;;;;3.06;1.72;;;;;;;;;;5222075;28;20033;-73
2022/11/28 06:03:26;;;;;;;1.70;1.30;;;;;;;;;;5223202;28;20021;-73
2022/11/28 06:05:57;;;;;;;3.45;1.58;;;;;;;;;;5223064;28;20022;-73
2022/11/28 06:08:28;;;;;;;1.74;1.44;;;;;;;;;;5222364;28;20315;-72
2022/11/28 06:10:59;;;;;;;2.22;1.48;;;;;;;;;;5222845;28;20025;-73
2022/11/28 06:13:31;;;;;;;1.75;1.45;;;;;;;;;;5222624;28;20185;-74
2022/11/28 06:16:05;;;;;;;2.72;1.77;;;;;;;;;;5221874;28;20097;-74
2022/11/28 06:18:37;;;;;;;2.00;1.58;;;;;;;;;;5222684;28;20025;-73
2022/11/28 06:21:09;;;;;;;2.13;1.48;;;;;;;;;;5222639;28;20355;-73
2022/11/28 06:23:40;;;;;;;2.03;1.80;;;;;;;;;;5221473;28;20109;-73
2022/11/28 06:26:15;;;;;;;1.98;1.67;;;;;;;;;;5222901;28;20535;-73
2022/11/28 06:28:47;;;;;;;2.08;1.77;;;;;;;;;;5222284;28;20093;-73
2022/11/28 06:31:19;;;;;;;2.33;1.67;;;;;;;;;;5221960;28;20160;-74
2022/11/28 06:33:51;;;;;;;1.88;1.58;;;;;;;;;;5221593;28;20072;-73
2022/11/28 06:36:22;;;;;;;1.88;1.52;;;;;;;;;;5221460;28;20033;-74
2022/11/28 06:38:53;;;;;;;2.75;2.05;;;;;;;;;;5222115;28;20030;-73
2022/11/28 06:41:24;;;;;;;2.20;1.95;;;;;;;;;;5222237;28;20449;-73
2022/11/28 06:43:56;;;;;;;3.38;1.67;;;;;;;;;;5221222;28;20053;-72
2022/11/28 06:46:27;;;;;;;2.25;1.92;;;;;;;;;;5221692;28;20026;-71
2022/11/28 06:48:58;;;;;;;2.20;1.55;;;;;;;;;;5222036;28;20385;-73
2022/11/28 06:51:29;;;;;;;1.95;1.75;;;;;;;;;;5221499;28;20370;-73
2022/11/28 06:54:01;;;;;;;2.50;1.92;;;;;;;;;;5221820;28;20054;-72
2022/11/28 06:56:32;;;;;;;2.05;1.73;;;;;;;;;;5221967;28;20021;-72
2022/11/28 06:59:03;;;;;;;3.38;2.42;;;;;;;;;;5220774;28;20037;-72
2022/11/28 07:01:34;;;;;;;2.34;2.04;;;;;;;;;;5221801;28;20062;-72
2022/11/28 07:04:05;;;;;;;2.38;2.10;;;;;;;;;;5221964;28;20018;-72
2022/11/28 07:06:37;;;;;;;2.30;1.88;;;;;;;;;;5221042;28;20030;-72
2022/11/28 07:09:08;;;;;;;2.35;1.73;;;;;;;;;;5221702;28;20022;-73
2022/11/28 07:11:40;;;;;;;3.20;2.90;;;;;;;;;;5220550;28;20120;-72
2022/11/28 07:14:11;;;;;;;2.92;2.28;;;;;;;;;;5221685;28;20280;-72
2022/11/28 07:16:42;;;;;;;2.38;1.98;;;;;;;;;;5221106;28;20401;-73
2022/11/28 07:19:13;;;;;;;3.13;2.17;;;;;;;;;;5221062;28;20389;-73
2022/11/28 07:21:44;;;;;;;2.80;2.50;;;;;;;;;;5220910;28;20045;-73
2022/11/28 07:24:16;;;;;;;2.55;2.35;;;;;;;;;;5220948;28;20029;-73
2022/11/28 07:26:47;;;;;;;2.83;2.15;;;;;;;;;;5220308;28;20026;-73
2022/11/28 07:29:18;;;;;;;2.52;2.32;;;;;;;;;;5221754;28;20021;-72
2022/11/28 07:31:50;;;;;;;3.47;3.17;;;;;;;;;;5220624;28;20018;-72
2022/11/28 07:34:21;;;;;;;3.88;2.60;;;;;;;;;;5220142;28;20359;-73
2022/11/28 07:36:52;;;;;;;3.22;2.85;;;;;;;;;;5220647;28;20378;-73
2022/11/28 07:39:23;;;;;;;3.15;2.85;;;;;;;;;;5220148;28;20013;-74
2022/11/28 07:41:54;;;;;;;4.70;2.97;;;;;;;;;;5220699;28;20032;-74
2022/11/28 07:44:26;;;;;;;2.45;2.25;;;;;;;;;;5219808;28;20054;-73
2022/11/28 07:46:57;;;;;;;2.95;2.65;;;;;;;;;;5219833;28;20359;-72
2022/11/28 07:49:28;;;;;;;2.72;2.48;;;;;;;;;;5220427;28;20084;-76
2022/11/28 07:51:59;;;;;;;2.97;2.72;;;;;;;;;;5220670;28;20014;-74
2022/11/28 07:54:31;;;;;;;3.67;2.85;;;;;;;;;;5219500;28;20152;-74
2022/11/28 07:57:02;;;;;;;2.75;2.55;;;;;;;;;;5220190;28;20438;-75
2022/11/28 07:59:33;;;;;;;3.03;2.72;;;;;;;;;;5220519;28;20026;-75
2022/11/28 08:02:04;;;;;;;2.85;2.60;;;;;;;;;;5219559;28;20018;-75
2022/11/28 08:04:36;;;;;;;2.97;2.67;;;;;;;;;;5220783;28;20014;-75
2022/11/28 08:07:07;;;;;;;2.65;2.45;;;;;;;;;;5220655;28;20037;-75
2022/11/28 08:09:38;;;;;;;2.80;2.50;;;;;;;;;;5219468;28;20215;-76
2022/11/28 08:12:09;;;;;;;3.45;3.15;;;;;;;;;;5220710;28;20462;-74
2022/11/28 08:14:40;;;;;;;3.03;2.72;;;;;;;;;;5219142;28;20022;-74
2022/11/28 08:17:11;;;;;;;3.28;2.70;;;;;;;;;;5220783;28;20026;-75
2022/11/28 08:19:43;;;;;;;3.15;2.90;;;;;;;;;;5219957;28;20025;-75
2022/11/28 08:22:14;;;;;;;3.80;2.60;;;;;;;;;;5219792;28;20021;-75
2022/11/28 08:24:45;;;;;;;2.85;2.58;;;;;;;;;;5219927;28;20022;-75
2022/11/28 08:27:16;;;;;;;4.04;2.86;;;;;;;;;;5220537;28;20277;-76
2022/11/28 08:29:48;;;;;;;3.62;3.32;;;;;;;;;;5219187;28;20025;-75
2022/11/28 08:32:19;;;;;;;3.17;2.90;;;;;;;;;;5220158;28;20072;-74
2022/11/28 08:34:50;;;;;;;3.42;3.13;;;;;;;;;;5219679;28;20037;-75
2022/11/28 08:37:21;;;;;;;3.70;3.35;;;;;;;;;;5219148;28;20049;-75
2022/11/28 08:39:52;;;;;;;4.20;3.80;;;;;;;;;;5220008;28;20268;-75
2022/11/28 08:42:24;;;;;;;4.04;3.46;;;;;;;;;;5219985;28;20022;-75
2022/11/28 08:44:55;;;;;;;3.78;3.42;;;;;;;;;;5219245;28;20022;-75
2022/11/28 08:47:26;;;;;;;3.70;3.40;;;;;;;;;;5219848;28;20026;-76
2022/11/28 08:49:57;;;;;;;4.43;3.97;;;;;;;;;;5218881;28;20325;-74
2022/11/28 08:52:28;;;;;;;5.08;4.24;;;;;;;;;;5219663;28;20034;-74
2022/11/28 08:54:59;;;;;;;4.68;4.22;;;;;;;;;;5219533;28;20457;-75
2022/11/28 08:57:31;;;;;;;4.72;4.10;;;;;;;;;;5218922;28;20481;-75
2022/11/28 09:00:03;;;;;;;4.55;4.13;;;;;;;;;;5219305;28;20046;-77
2022/11/28 09:02:34;;;;;;;4.53;4.13;;;;;;;;;;5219681;28;20029;-76
2022/11/28 09:05:05;;;;;;;3.20;2.85;;;;;;;;;;5218893;28;20104;-76
2022/11/28 09:07:36;;;;;;;4.97;4.00;;;;;;;;;;5219632;28;20018;-76
2022/11/28 09:10:07;;;;;;;5.03;4.25;;;;;;;;;;5219576;28;20033;-76
2022/11/28 09:12:39;;;;;;;4.25;3.85;;;;;;;;;;5218472;28;20338;-76
2022/11/28 09:15:10;;;;;;;4.72;3.95;;;;;;;;;;5219825;28;20366;-76
2022/11/28 09:17:41;;;;;;;5.57;4.60;;;;;;;;;;5219292;28;20172;-76
2022/11/28 09:20:12;;;;;;;4.90;4.00;;;;;;;;;;5219274;28;20034;-77
2022/11/28 09:22:46;;;;;;;3.58;3.28;;;;;;;;;;5219121;28;20022;-75
2022/11/28 09:25:17;;;;;;;3.78;3.45;;;;;;;;;;5218864;28;20161;-75
2022/11/28 09:27:48;;;;;;;4.53;3.00;;;;;;;;;;5221399;28;20436;-75
2022/11/28 09:30:21;;;;;;;4.53;4.13;;;;;;;;;;5221105;28;20060;-75
2022/11/28 09:32:53;;;;;;;3.63;3.25;;;;;;;;;;5218727;28;20069;-75
2022/11/28 09:35:24;;;;;;;3.45;3.13;;;;;;;;;;5219117;28;20022;-75
2022/11/28 09:37:56;;;;;;;3.58;3.28;;;;;;;;;;5219420;28;20123;-76
2022/11/28 09:40:32;;;;;;;3.55;3.25;;;;;;;;;;5218371;28;20022;-77
2022/11/28 09:43:08;;;;;;;4.82;4.30;;;;;;;;;;5219303;28;20084;-77
2022/11/28 09:45:40;;;;;;;3.97;3.55;;;;;;;;;;5215093;28;20704;-76
2022/11/28 09:48:31;;;;;;;4.28;3.90;;;;;;;;;;5218179;28;20195;-77
2022/11/28 09:51:19;;;;;;;4.97;4.32;;;;;;;;;;5218017;28;20169;-76
2022/11/28 09:54:09;;;;;;;4.15;3.75;;;;;;;;;;5216148;28;20018;-76
2022/11/28 09:56:41;;;;;;;4.55;3.80;;;;;;;;;;5218229;28;20045;-76
2022/11/28 09:59:16;;;;;;;4.55;4.18;;;;;;;;;;5218979;28;20021;-76
2022/11/28 10:01:51;;;;;;;4.70;4.30;;;;;;;;;;5217724;28;20061;-76
2022/11/28 10:04:28;;;;;;;5.20;4.70;;;;;;;;;;5218402;28;20018;-76
2022/11/28 10:07:10;;;;;;;5.38;4.88;;;;;;;;;;5218199;28;20283;-75
2022/11/28 10:09:47;;;;;;;4.97;4.57;;;;;;;;;;5222182;28;20025;-76
2022/11/28 10:12:24;;;;;;;5.75;5.15;;;;;;;;;;5223061;28;20045;-75
2022/11/28 10:15:02;;;;;;;6.47;5.93;;;;;;;;;;5221431;28;20026;-75
2022/11/28 10:17:43;;;;;;;6.22;5.63;;;;;;;;;;5222424;28;20096;-76
2022/11/28 10:20:18;;;;;;;5.80;5.18;;;;;;;;;;5213830;28;20030;-75
2022/11/28 10:22:52;;;;;;;6.70;5.97;;;;;;;;;;5218591;28;20477;-76
2022/11/28 10:25:32;;;;;;;6.10;5.50;;;;;;;;;;5228439;28;20033;-72
2022/11/28 10:28:05;;;;;;;5.72;5.22;;;;;;;;;;5221737;28;20461;-76
2022/11/28 10:30:38;;;;;;;6.38;5.78;;;;;;;;;;5220465;28;20017;-75
2022/11/28 10:33:09;;;;;;;6.70;6.10;;;;;;;;;;5221677;28;20133;-75
2022/11/28 10:35:53;;;;;;;7.43;6.72;;;;;;;;;;5220733;28;20157;-76
2022/11/28 10:38:26;;;;;;;6.70;6.10;;;;;;;;;;5222175;28;20429;-75
2022/11/28 10:41:06;;;;;;;6.90;6.32;;;;;;;;;;5241855;28;20056;-76
2022/11/28 10:43:42;;;;;;;6.82;6.22;;;;;;;;;;5241971;28;20457;-75
2022/11/28 10:46:14;;;;;;;6.95;5.72;;;;;;;;;;5242492;28;20366;-75
2022/11/28 10:48:45;;;;;;;7.57;6.88;;;;;;;;;;5241510;28;20112;-75
2022/11/28 10:51:27;;;;;;;7.88;7.07;;;;;;;;;;5242110;28;20478;-75
2022/11/28 10:54:01;;;;;;;8.35;7.65;;;;;;;;;;5242270;28;20318;-75
2022/11/28 10:56:51;;;;;;;9.32;8.43;;;;;;;;;;5241688;28;20477;-75
2022/11/28 10:59:22;;;;;;;9.65;7.63;;;;;;;;;;5242210;28;20065;-76
2022/11/28 11:01:53;;;;;;;8.65;7.75;;;;;;;;;;5242413;28;20027;-75
2022/11/28 11:04:26;;;;;;;9.65;8.75;;;;;;;;;;5241405;28;20270;-75
2022/11/28 11:07:00;;;;;;;9.95;8.95;;;;;;;;;;5242255;28;20052;-75
2022/11/28 11:09:32;;;;;;;10.35;9.35;;;;;;;;;;5242062;28;20060;-75
2022/11/28 11:12:05;;;;;;;11.23;10.15;;;;;;;;;;5241641;28;20018;-73
2022/11/28 11:14:40;;;;;;;10.27;9.32;;;;;;;;;;5242293;28;20517;-73
2022/11/28 11:17:23;;;;;;;10.65;9.70;;;;;;;;;;5242072;28;20105;-74
2022/11/28 11:19:54;;;;;;;12.20;11.00;;;;;;;;;;5240572;28;20037;-73
2022/11/28 11:22:30;;;;;;;12.48;11.27;;;;;;;;;;5241716;28;20433;-73
2022/11/28 11:25:04;;;;;;;11.43;10.32;;;;;;;;;;5241426;28;20499;-74
2022/11/28 11:27:36;;;;;;;12.45;11.25;;;;;;;;;;5241806;28;20096;-72
2022/11/28 11:30:28;;;;;;;12.70;11.40;;;;;;;;;;5242033;28;20504;-73
2022/11/28 11:33:00;;;;;;;11.40;10.27;;;;;;;;;;5223184;28;20364;-73
2022/11/28 11:35:34;;;;;;;12.38;11.05;;;;;;;;;;5241614;28;20029;-74
2022/11/28 11:38:14;;;;;;;11.77;10.57;;;;;;;;;;5241560;28;20020;-74
2022/11/28 11:40:45;;;;;;;13.75;11.65;;;;;;;;;;5240850;28;20029;-73
2022/11/28 11:43:46;;;;;;;13.68;12.30;;;;;;;;;;5241704;28;20162;-74
2022/11/28 11:46:17;;;;;;;14.85;13.27;;;;;;;;;;5219622;28;20072;-74
2022/11/28 11:48:51;;;;;;;13.35;11.68;;;;;;;;;;5241081;28;20408;-73
2022/11/28 11:51:24;;;;;;;16.23;12.60;;;;;;;;;;5241404;28;20025;-74
2022/11/28 11:54:01;;;;;;;17.67;14.65;;;;;;;;;;5240522;28;20020;-74
2022/11/28 11:56:35;;;;;;;17.40;13.90;;;;;;;;;;5241339;28;20029;-74
2022/11/28 11:59:12;;;;;;;17.60;14.13;;;;;;;;;;5241170;28;20097;-73
2022/11/28 12:01:45;;;;;;;17.52;14.35;;;;;;;;;;5239773;28;20029;-74
2022/11/28 12:04:23;;;;;;;17.95;14.20;;;;;;;;;;5241321;28;20079;-73
2022/11/28 12:06:57;;;;;;;19.17;15.33;;;;;;;;;;5240241;28;20017;-74
2022/11/28 12:09:28;;;;;;;17.10;14.15;;;;;;;;;;5241055;28;20084;-73
2022/11/28 12:12:05;;;;;;;18.55;15.27;;;;;;;;;;5240744;28;20129;-74
2022/11/28 12:14:40;;;;;;;24.80;16.48;;;;;;;;;;5240201;28;20020;-73
2022/11/28 12:17:11;;;;;;;24.33;16.50;;;;;;;;;;5241244;28;20105;-75
2022/11/28 12:20:05;;;;;;;20.90;15.75;;;;;;;;;;5240367;28;20447;-75
2022/11/28 12:22:36;;;;;;;21.80;14.63;;;;;;;;;;5226460;28;20280;-75
2022/11/28 12:25:07;;;;;;;23.80;17.52;;;;;;;;;;5240838;28;20029;-75
2022/11/28 12:27:38;;;;;;;25.48;18.70;;;;;;;;;;5240303;28;20624;-74
2022/11/28 12:30:36;;;;;;;21.00;16.92;;;;;;;;;;5239889;28;20272;-75
2022/11/28 12:33:14;;;;;;;20.60;16.27;;;;;;;;;;5235545;28;20053;-75
2022/11/28 12:35:52;;;;;;;21.23;17.53;;;;;;;;;;5239741;28;20026;-75
2022/11/28 12:38:42;;;;;;;25.52;17.85;;;;;;;;;;5240616;28;20017;-73
2022/11/28 12:41:28;;;;;;;22.63;17.05;;;;;;;;;;5240592;28;20065;-74
2022/11/28 12:44:08;;;;;;;25.45;18.17;;;;;;;;;;5239772;28;20033;-73
2022/11/28 12:46:39;;;;;;;20.75;16.35;;;;;;;;;;5240324;28;20022;-73
2022/11/28 12:49:13;;;;;;;22.90;17.00;;;;;;;;;;5239764;28;20017;-76
2022/11/28 12:51:44;;;;;;;22.08;16.98;;;;;;;;;;5240080;28;20303;-74
2022/11/28 12:54:36;;;;;;;24.60;17.38;;;;;;;;;;5240583;28;20104;-75
2022/11/28 12:57:15;;;;;;;22.75;17.85;;;;;;;;;;5239544;28;20022;-75
2022/11/28 12:59:49;;;;;;;26.85;17.77;;;;;;;;;;5239414;28;20488;-75
2022/11/28 13:02:26;;;;;;;26.27;18.02;;;;;;;;;;5240157;28;20036;-74
2022/11/28 13:05:03;;;;;;;33.45;21.00;;;;;;;;;;5239288;28;20106;-75
2022/11/28 13:07:46;;;;;;;25.13;19.45;;;;;;;;;;5239883;28;20035;-74
2022/11/28 13:10:26;;;;;;;27.40;18.77;;;;;;;;;;5239444;28;20065;-74
2022/11/28 13:12:57;;;;;;;25.63;19.15;;;;;;;;;;5239840;28;20059;-75
2022/11/28 13:15:38;;;;;;;23.48;18.70;;;;;;;;;;5240073;28;20381;-75
2022/11/28 13:18:12;;;;;;;26.77;19.70;;;;;;;;;;5239226;28;20035;-74
2022/11/28 13:20:49;;;;;;;24.55;19.00;;;;;;;;;;5239359;28;20441;-74
2022/11/28 13:23:20;;;;;;;25.45;18.42;;;;;;;;;;5239772;28;20083;-74
2022/11/28 13:26:00;;;;;;;30.63;20.25;;;;;;;;;;5239136;28;20033;-74
2022/11/28 13:28:44;;;;;;;23.15;19.08;;;;;;;;;;5239946;28;20490;-73
2022/11/28 13:31:15;;;;;;;28.88;19.55;;;;;;;;;;5239416;28;20018;-75
2022/11/28 13:33:47;;;;;;;25.25;18.92;;;;;;;;;;5239402;28;20539;-75
2022/11/28 13:36:39;;;;;;;29.35;18.85;;;;;;;;;;5240170;28;20272;-73
2022/11/28 13:39:32;;;;;;;28.58;18.30;;;;;;;;;;5239273;28;20492;-74
2022/11/28 13:42:12;;;;;;;24.83;17.80;;;;;;;;;;5240309;28;20026;-73
2022/11/28 13:44:43;;;;;;;28.30;18.27;;;;;;;;;;5243444;28;20029;-72
2022/11/28 13:47:20;;;;;;;22.85;17.00;;;;;;;;;;5243260;28;20401;-75
2022/11/28 13:50:11;;;;;;;30.85;18.27;;;;;;;;;;5243579;28;20280;-73
2022/11/28 13:52:42;;;;;;;26.10;18.35;;;;;;;;;;5242394;28;20029;-73
2022/11/28 13:55:32;;;;;;;25.50;19.42;;;;;;;;;;5243827;28;20048;-74
2022/11/28 13:58:29;;;;;;;25.13;18.58;;;;;;;;;;5243314;28;20061;-74
2022/11/28 14:01:01;;;;;;;24.45;18.23;;;;;;;;;;5204701;28;20037;-73
2022/11/28 14:03:33;;;;;;;28.25;19.27;;;;;;;;;;5243594;28;20447;-73
2022/11/28 14:06:05;;;;;;;22.13;18.15;;;;;;;;;;5243340;28;20033;-73
2022/11/28 14:08:38;;;;;;;25.30;19.20;;;;;;;;;;5242508;28;20032;-79
2022/11/28 14:11:28;;;;;;;24.70;19.20;;;;;;;;;;5243324;28;20049;-74
2022/11/28 14:14:05;;;;;;;29.55;18.48;;;;;;;;;;5242078;28;20848;-75
2022/11/28 14:16:41;;;;;;;24.15;18.85;;;;;;;;;;5241473;28;20025;-75
2022/11/28 14:19:15;;;;;;;25.02;19.05;;;;;;;;;;5242994;28;20029;-74
2022/11/28 14:22:14;;;;;;;23.83;16.63;;;;;;;;;;5241798;28;20472;-74
2022/11/28 14:24:58;;;;;;;23.98;16.90;;;;;;;;;;5242735;28;20035;-74
2022/11/28 14:27:31;;;;;;;26.83;18.50;;;;;;;;;;5242237;28;20053;-75
2022/11/28 14:30:03;;;;;;;23.00;18.00;;;;;;;;;;5243122;28;20434;-74
2022/11/28 14:32:36;;;;;;;27.50;16.50;;;;;;;;;;5242904;28;20088;-75
2022/11/28 14:35:15;;;;;;;26.52;18.90;;;;;;;;;;5242119;28;20049;-74
2022/11/28 14:37:51;;;;;;;21.83;16.20;;;;;;;;;;5242177;28;20018;-74
2022/11/28 14:40:46;;;;;;;25.83;17.60;;;;;;;;;;5242554;28;20033;-73
2022/11/28 14:43:23;;;;;;;29.15;18.10;;;;;;;;;;5229105;28;20388;-73
2022/11/28 14:46:13;;;;;;;32.22;18.63;;;;;;;;;;5242599;28;20022;-74
2022/11/28 14:48:56;;;;;;;30.08;17.17;;;;;;;;;;5241339;28;20026;-74
2022/11/28 14:51:42;;;;;;;23.40;16.33;;;;;;;;;;5242675;28;20048;-73
2022/11/28 14:54:30;;;;;;;26.80;16.50;;;;;;;;;;5242284;28;20035;-73
2022/11/28 14:57:09;;;;;;;24.73;16.87;;;;;;;;;;5241829;28;20014;-73
2022/11/28 14:59:40;;;;;;;22.63;15.50;;;;;;;;;;5242227;28;20416;-74
2022/11/28 15:02:11;;;;;;;23.27;16.35;;;;;;;;;;5242751;28;20183;-75
2022/11/28 15:04:42;;;;;;;25.58;17.17;;;;;;;;;;5241273;28;20025;-75
2022/11/28 15:07:23;;;;;;;23.33;16.75;;;;;;;;;;5242793;28;20330;-76
2022/11/28 15:10:07;;;;;;;27.42;16.00;;;;;;;;;;5241517;28;20110;-76
2022/11/28 15:12:39;;;;;;;25.35;16.83;;;;;;;;;;5242127;28;20499;-76
2022/11/28 15:15:12;;;;;;;23.23;17.08;;;;;;;;;;5242226;28;20065;-76
2022/11/28 15:17:44;;;;;;;25.13;16.70;;;;;;;;;;5241150;28;20628;-76
2022/11/28 15:20:20;;;;;;;26.65;17.30;;;;;;;;;;5242193;28;20149;-76
2022/11/28 15:22:51;;;;;;;22.25;16.65;;;;;;;;;;5242181;28;20411;-77